createdAt,value
2022-09-14T00:01:08.142Z,94962.97
2022-09-14T00:06:14.081Z,94949.03
2022-09-14T00:11:17.859Z,94945.28
2022-09-14T00:16:21.184Z,94943.75
2022-09-14T00:21:24.909Z,94948.25
2022-09-14T00:26:28.518Z,94946.94
2022-09-14T00:31:32.007Z,94954.66
2022-09-14T00:36:35.288Z,94952.81
2022-09-14T00:41:38.541Z,94949.00
2022-09-14T00:46:41.848Z,94937.81
2022-09-14T00:51:45.171Z,94931.22
2022-09-14T00:56:48.472Z,94929.97
2022-09-14T01:01:51.906Z,94915.50
2022-09-14T01:06:55.222Z,94898.50
2022-09-14T01:11:58.463Z,94885.94
2022-09-14T01:17:02.104Z,94891.59
2022-09-14T01:22:05.412Z,94865.56
2022-09-14T01:27:08.595Z,94864.28
2022-09-14T01:32:11.739Z,94856.25
2022-09-14T01:37:15.114Z,94847.44
2022-09-14T01:42:18.668Z,94849.03
2022-09-14T01:47:23.266Z,94838.16
2022-09-14T01:52:27.337Z,94842.19
2022-09-14T01:57:31.950Z,94831.44
2022-09-14T02:02:36.339Z,94828.84
2022-09-14T02:07:39.685Z,94841.44
2022-09-14T02:12:43.053Z,94846.31
2022-09-14T02:17:46.228Z,94835.75
2022-09-14T02:22:48.957Z,94832.00
2022-09-14T02:27:52.533Z,94841.75
2022-09-14T02:32:55.296Z,94844.00
2022-09-14T02:37:57.940Z,94843.31
2022-09-14T02:43:00.793Z,94840.72
2022-09-14T02:48:03.636Z,94825.41
2022-09-14T02:53:06.392Z,94821.34
2022-09-14T02:58:09.113Z,94794.19
2022-09-14T03:03:11.810Z,94783.06
2022-09-14T03:08:14.557Z,94776.75
2022-09-14T03:13:17.325Z,94778.44
2022-09-14T03:18:19.990Z,94765.53
2022-09-14T03:23:23.815Z,94781.72
2022-09-14T03:28:26.537Z,94789.56
2022-09-14T03:33:29.231Z,94787.94
2022-09-14T03:38:32.074Z,94784.66
2022-09-14T03:43:34.808Z,94770.97
2022-09-14T03:48:37.600Z,94763.38
2022-09-14T03:53:40.403Z,94756.38
2022-09-14T03:58:43.262Z,94762.13
2022-09-14T04:03:46.027Z,94767.56
2022-09-14T04:08:48.807Z,94768.81
2022-09-14T04:13:51.557Z,94773.13
2022-09-14T04:18:54.248Z,94776.41
2022-09-14T04:24:14.513Z,94786.56
2022-09-14T04:29:18.208Z,94800.50
2022-09-14T04:34:26.523Z,94790.38
2022-09-14T04:39:29.313Z,94793.53
2022-09-14T04:44:32.192Z,94792.06
2022-09-14T04:49:35.109Z,94778.50
2022-09-14T04:54:37.892Z,94782.22
2022-09-14T04:59:40.643Z,94776.66
2022-09-14T05:04:43.781Z,94777.69
2022-09-14T05:09:46.447Z,94782.22
2022-09-14T05:14:49.259Z,94785.72
2022-09-14T05:19:52.153Z,94774.16
2022-09-14T05:24:54.908Z,94769.53
2022-09-14T05:29:57.615Z,94769.53
2022-09-14T05:35:00.370Z,94774.28
2022-09-14T05:40:03.241Z,94770.78
2022-09-14T05:45:05.971Z,94767.38
2022-09-14T05:50:09.632Z,94757.00
2022-09-14T05:55:12.462Z,94756.03
2022-09-14T06:00:15.514Z,94753.38
2022-09-14T06:05:18.471Z,94755.94
2022-09-14T06:10:21.384Z,94751.66
2022-09-14T06:15:25.568Z,94762.41
2022-09-14T06:20:28.308Z,94769.06
2022-09-14T06:25:31.471Z,94774.03
2022-09-14T06:30:35.137Z,94777.47
2022-09-14T06:35:38.029Z,94770.84
2022-09-14T06:40:40.833Z,94774.91
2022-09-14T06:45:44.514Z,94779.03
2022-09-14T06:50:47.246Z,94777.81
2022-09-14T06:55:50.045Z,94757.66
2022-09-14T07:00:52.738Z,94751.84
2022-09-14T07:05:55.450Z,94759.03
2022-09-14T07:10:58.903Z,94757.47
2022-09-14T07:16:06.086Z,94765.53
2022-09-14T07:21:09.168Z,94764.38
2022-09-14T07:26:11.932Z,94769.13
2022-09-14T07:31:14.723Z,94762.41
2022-09-14T07:36:18.468Z,94766.47
2022-09-14T07:41:21.283Z,94760.25
2022-09-14T07:46:24.150Z,94755.94
2022-09-14T07:51:26.977Z,94767.50
2022-09-14T07:56:29.682Z,94759.13
2022-09-14T08:01:32.450Z,94770.91
2022-09-14T08:06:37.167Z,94775.53
2022-09-14T08:11:40.420Z,94789.16
2022-09-14T08:16:43.682Z,94795.88
2022-09-14T08:21:47.823Z,94786.44
2022-09-14T08:26:51.306Z,94780.28
2022-09-14T08:31:54.661Z,94774.44
2022-09-14T08:36:57.977Z,94781.09
2022-09-14T08:42:02.073Z,94788.84
2022-09-14T08:47:05.378Z,94787.94
2022-09-14T08:52:08.693Z,94796.69
2022-09-14T08:57:11.901Z,94794.06
2022-09-14T09:02:15.566Z,94798.16
2022-09-14T09:07:20.170Z,94809.59
2022-09-14T09:12:23.441Z,94821.47
2022-09-14T09:17:26.796Z,94816.06
2022-09-14T09:22:30.149Z,94818.88
2022-09-14T09:27:33.422Z,94818.81
2022-09-14T09:32:36.737Z,94821.13
2022-09-14T09:37:40.165Z,94814.63
2022-09-14T09:42:43.378Z,94807.97
2022-09-14T09:47:46.924Z,94816.03
2022-09-14T09:52:50.215Z,94822.75
2022-09-14T09:57:56.134Z,94823.53
2022-09-14T10:03:02.472Z,94816.09
2022-09-14T10:08:11.221Z,94801.84
2022-09-14T10:13:14.867Z,94790.69
2022-09-14T10:18:18.077Z,94788.44
2022-09-14T10:23:21.491Z,94766.03
2022-09-14T10:28:24.818Z,94768.03
2022-09-14T10:33:35.170Z,94761.75
2022-09-14T10:38:38.307Z,94770.09
2022-09-14T10:43:41.522Z,94750.06
2022-09-14T10:48:44.757Z,94741.41
2022-09-14T10:53:48.005Z,94736.31
2022-09-14T10:58:51.287Z,94729.59
2022-09-14T11:03:54.816Z,94725.63
2022-09-14T11:08:58.362Z,94733.09
2022-09-14T11:14:02.293Z,94722.34
2022-09-14T11:19:05.527Z,94724.06
2022-09-14T11:24:09.180Z,94719.78
2022-09-14T11:29:12.519Z,94712.31
2022-09-14T11:34:15.899Z,94698.81
2022-09-14T11:39:19.213Z,94688.66
2022-09-14T11:44:22.537Z,94692.97
2022-09-14T11:49:25.738Z,94680.75
2022-09-14T11:54:28.986Z,94670.50
2022-09-14T11:59:32.346Z,94641.25
2022-09-14T12:04:35.704Z,94649.63
2022-09-14T12:09:38.996Z,94657.06
2022-09-14T12:14:44.549Z,94644.00
2022-09-14T12:19:52.883Z,94643.22
2022-09-14T12:24:56.091Z,94637.38
2022-09-14T12:29:59.452Z,94641.28
2022-09-14T12:35:02.752Z,94650.28
2022-09-14T12:40:06.111Z,94659.94
2022-09-14T12:45:09.477Z,94655.81
2022-09-14T12:50:12.774Z,94655.75
2022-09-14T12:55:16.113Z,94668.19
2022-09-14T13:00:19.985Z,94670.13
2022-09-14T13:05:23.941Z,94650.50
2022-09-14T13:10:28.746Z,94645.78
2022-09-14T13:15:36.856Z,94643.50
2022-09-14T13:20:40.469Z,94644.34
2022-09-14T13:25:43.818Z,94625.97
2022-09-14T13:30:47.050Z,94631.94
2022-09-14T13:35:50.282Z,94620.47
2022-09-14T13:40:53.645Z,94616.25
2022-09-14T13:45:57.173Z,94609.13
2022-09-14T13:51:00.470Z,94601.16
2022-09-14T13:56:03.749Z,94601.34
2022-09-14T14:01:07.001Z,94602.97
2022-09-14T14:06:10.236Z,94614.41
2022-09-14T14:11:13.381Z,94620.38
2022-09-14T14:16:16.931Z,94629.47
2022-09-14T14:21:20.143Z,94629.84
2022-09-14T14:26:23.470Z,94622.78
2022-09-14T14:31:26.670Z,94625.53
2022-09-14T14:36:32.242Z,94613.31
2022-09-14T14:41:40.194Z,94601.56
2022-09-14T14:46:44.353Z,94603.84
2022-09-14T14:51:47.905Z,94616.78
2022-09-14T14:56:51.225Z,94612.03
2022-09-14T15:01:55.115Z,94628.09
2022-09-14T15:06:58.514Z,94612.78
2022-09-14T15:12:01.817Z,94626.09
2022-09-14T15:17:05.010Z,94638.19
2022-09-14T15:22:08.576Z,94667.28
2022-09-14T15:27:12.218Z,94661.75
2022-09-14T15:32:15.765Z,94670.41
2022-09-14T15:37:19.076Z,94686.66
2022-09-14T15:42:22.836Z,94700.84
2022-09-14T15:47:35.609Z,94713.00
2022-09-14T15:52:39.973Z,94760.59
2022-09-14T15:57:43.176Z,94760.16
2022-09-14T16:02:46.171Z,94768.03
2022-09-14T16:07:49.490Z,94757.59
2022-09-14T16:12:52.699Z,94764.19
2022-09-14T16:17:56.734Z,94771.47
2022-09-14T16:23:00.113Z,94762.38
2022-09-14T16:28:02.977Z,94754.75
2022-09-14T16:33:05.791Z,94744.66
2022-09-14T16:38:08.454Z,94734.28
2022-09-14T16:43:11.316Z,94732.25
2022-09-14T16:48:14.071Z,94740.06
2022-09-14T16:53:16.897Z,94728.59
2022-09-14T16:58:20.530Z,94713.41
2022-09-14T17:03:31.727Z,94698.50
2022-09-14T17:08:38.732Z,94719.34
2022-09-14T17:13:45.043Z,94730.94
2022-09-14T17:18:50.451Z,94711.91
2022-09-14T17:23:53.326Z,94705.31
2022-09-14T17:28:56.154Z,94713.13
2022-09-14T17:33:58.916Z,94713.91
2022-09-14T17:39:02.327Z,94709.56
2022-09-14T17:44:05.104Z,94702.72
2022-09-14T17:49:10.500Z,94724.25
2022-09-14T17:54:13.503Z,94713.78
2022-09-14T17:59:18.035Z,94721.78
2022-09-14T18:04:20.808Z,94712.63
2022-09-14T18:09:24.401Z,94716.00
2022-09-14T18:14:27.155Z,94709.69
2022-09-14T18:19:30.517Z,94694.09
2022-09-14T18:24:33.484Z,94692.94
2022-09-14T18:29:36.351Z,94708.81
2022-09-14T18:34:39.274Z,94719.34
2022-09-14T18:39:42.509Z,94726.00
2022-09-14T18:44:45.332Z,94723.28
2022-09-14T18:49:49.516Z,94727.63
2022-09-14T18:54:52.434Z,94726.50
2022-09-14T18:59:56.517Z,94717.31
2022-09-14T19:04:59.521Z,94706.22
2022-09-14T19:10:02.242Z,94705.22
2022-09-14T19:15:05.127Z,94717.47
2022-09-14T19:20:10.999Z,94697.88
2022-09-14T19:25:14.167Z,94707.94
2022-09-14T19:30:16.877Z,94700.13
2022-09-14T19:35:20.104Z,94695.06
2022-09-14T19:40:24.262Z,94708.88
2022-09-14T19:45:27.273Z,94720.69
2022-09-14T19:50:30.335Z,94740.34
2022-09-14T19:55:33.066Z,94739.47
2022-09-14T20:00:35.977Z,94738.31
2022-09-14T20:05:38.678Z,94735.38
2022-09-14T20:10:41.401Z,94745.72
2022-09-14T20:15:44.568Z,94749.78
2022-09-14T20:20:47.385Z,94745.25
2022-09-14T20:25:50.100Z,94754.19
2022-09-14T20:30:52.792Z,94742.75
2022-09-14T20:35:55.558Z,94764.25
2022-09-14T20:40:58.978Z,94757.47
2022-09-14T20:46:01.705Z,94770.56
2022-09-14T20:51:05.561Z,94752.03
2022-09-14T20:56:08.617Z,94760.94
2022-09-14T21:01:11.354Z,94766.91
2022-09-14T21:06:14.542Z,94752.47
2022-09-14T21:11:17.705Z,94748.06
2022-09-14T21:16:20.846Z,94744.34
2022-09-14T21:21:23.671Z,94744.66
2022-09-14T21:26:26.370Z,94745.94
2022-09-14T21:31:30.028Z,94759.31
2022-09-14T21:36:34.608Z,94754.50
2022-09-14T21:41:37.359Z,94756.19
2022-09-14T21:46:40.197Z,94753.34
2022-09-14T21:51:43.100Z,94755.84
2022-09-14T21:56:46.335Z,94763.31
2022-09-14T22:01:49.252Z,94764.09
2022-09-14T22:06:53.234Z,94766.38
2022-09-14T22:11:55.951Z,94756.84
2022-09-14T22:16:58.636Z,94753.78
2022-09-14T22:22:02.362Z,94765.00
2022-09-14T22:27:05.599Z,94770.66
2022-09-14T22:32:14.499Z,94769.84
2022-09-14T22:37:17.335Z,94764.34
2022-09-14T22:42:20.331Z,94768.63
2022-09-14T22:47:23.130Z,94763.06
2022-09-14T22:52:25.959Z,94763.84
2022-09-14T22:57:28.755Z,94772.22
2022-09-14T23:02:31.800Z,94781.16
2022-09-14T23:07:34.579Z,94785.28
2022-09-14T23:12:37.274Z,94791.09
2022-09-14T23:17:40.025Z,94790.69
2022-09-14T23:22:42.739Z,94793.63
2022-09-14T23:27:45.453Z,94781.09
2022-09-14T23:32:48.201Z,94794.31
2022-09-14T23:37:50.935Z,94787.75
2022-09-14T23:42:53.687Z,94785.72
2022-09-14T23:47:57.868Z,94800.22
2022-09-14T23:53:05.290Z,94798.16
2022-09-14T23:58:15.529Z,94799.28
